createdAt,value
2023-02-05T00:01:06.226Z,16.40
2023-02-05T00:03:39.205Z,15.85
2023-02-05T00:06:12.281Z,14.38
2023-02-05T00:08:41.741Z,15.90
2023-02-05T00:11:11.921Z,16.27
2023-02-05T00:13:41.059Z,18.08
2023-02-05T00:16:17.189Z,17.92
2023-02-05T00:18:44.891Z,15.65
2023-02-05T00:21:12.892Z,15.57
2023-02-05T00:23:40.798Z,15.85
2023-02-05T00:26:10.812Z,14.00
2023-02-05T00:28:42.554Z,16.48
2023-02-05T00:31:18.487Z,14.00
2023-02-05T00:37:23.389Z,24.83
2023-02-05T00:42:49.062Z,33.00
2023-02-05T00:45:16.749Z,34.55
2023-02-05T00:47:44.319Z,25.27
2023-02-05T00:50:19.650Z,33.88
2023-02-05T00:53:13.842Z,33.65
2023-02-05T00:55:48.166Z,29.80
2023-02-05T00:58:18.048Z,25.98
2023-02-05T01:00:46.241Z,30.33
2023-02-05T01:06:03.005Z,21.40
2023-02-05T01:08:30.831Z,18.98
2023-02-05T01:10:58.210Z,17.73
2023-02-05T01:13:25.861Z,17.08
2023-02-05T01:15:53.752Z,18.10
2023-02-05T01:18:21.366Z,16.98
2023-02-05T01:20:49.145Z,13.60
2023-02-05T01:23:16.482Z,15.98
2023-02-05T01:25:44.438Z,11.07
2023-02-05T01:28:17.026Z,14.95
2023-02-05T01:31:00.048Z,16.90
2023-02-05T01:33:27.474Z,12.55
2023-02-05T01:35:54.756Z,16.80
2023-02-05T01:38:22.173Z,14.13
2023-02-05T01:40:49.455Z,16.58
2023-02-05T01:43:18.120Z,16.58
2023-02-05T01:46:00.770Z,14.57
2023-02-05T01:48:32.856Z,14.27
2023-02-05T01:51:07.084Z,15.15
2023-02-05T01:53:35.848Z,15.82
2023-02-05T01:56:10.499Z,24.02
2023-02-05T01:58:41.886Z,21.77
2023-02-05T02:01:09.161Z,22.73
2023-02-05T02:03:36.876Z,23.05
2023-02-05T02:09:25.036Z,32.20
2023-02-05T02:11:52.584Z,31.35
2023-02-05T02:14:19.890Z,35.88
2023-02-05T02:16:47.908Z,29.23
2023-02-05T02:20:00.359Z,25.85
2023-02-05T02:22:58.564Z,21.33
2023-02-05T02:26:03.738Z,26.90
2023-02-05T02:28:32.349Z,27.25
2023-02-05T02:31:15.092Z,22.67
2023-02-05T02:34:03.219Z,21.40
2023-02-05T02:36:55.524Z,22.77
2023-02-05T02:39:26.872Z,19.65
2023-02-05T02:42:10.294Z,19.52
2023-02-05T02:44:47.462Z,22.60
2023-02-05T02:47:20.881Z,24.65
2023-02-05T02:49:56.489Z,23.13
2023-02-05T02:55:20.754Z,18.17
2023-02-05T02:57:49.355Z,11.45
2023-02-05T03:00:20.410Z,13.60
2023-02-05T03:02:49.341Z,11.75
2023-02-05T03:11:18.531Z,12.23
2023-02-05T03:13:46.187Z,11.70
2023-02-05T03:16:15.696Z,17.13
2023-02-05T03:18:49.368Z,16.02
2023-02-05T03:21:51.603Z,13.85
2023-02-05T03:24:19.460Z,17.83
2023-02-05T03:26:46.824Z,17.33
2023-02-05T03:29:16.334Z,15.85
2023-02-05T03:32:01.772Z,15.23
2023-02-05T03:34:59.124Z,17.25
2023-02-05T03:37:48.673Z,20.45
2023-02-05T03:40:38.501Z,20.05
2023-02-05T03:43:31.654Z,19.80
2023-02-05T03:46:35.736Z,20.20
2023-02-05T03:49:35.660Z,18.88
2023-02-05T03:52:21.303Z,16.13
2023-02-05T03:55:06.570Z,21.80
2023-02-05T03:57:59.275Z,20.73
2023-02-05T04:00:27.064Z,17.08
2023-02-05T04:02:54.371Z,23.13
2023-02-05T04:05:23.229Z,21.77
2023-02-05T04:07:51.971Z,21.90
2023-02-05T04:10:21.913Z,32.80
2023-02-05T04:12:49.120Z,47.13
2023-02-05T04:15:16.472Z,46.15
2023-02-05T04:17:43.948Z,38.63
2023-02-05T04:20:11.873Z,37.58
2023-02-05T04:22:39.121Z,27.13
2023-02-05T04:25:33.890Z,23.27
2023-02-05T04:28:01.502Z,22.45
2023-02-05T04:30:29.147Z,22.48
2023-02-05T04:32:56.416Z,19.17
2023-02-05T04:35:23.903Z,16.83
2023-02-05T04:37:51.487Z,19.45
2023-02-05T04:40:19.276Z,15.10
2023-02-05T04:42:46.510Z,14.50
2023-02-05T04:45:14.046Z,14.52
2023-02-05T04:47:41.298Z,14.43
2023-02-05T04:50:09.769Z,18.08
2023-02-05T04:55:31.124Z,13.93
2023-02-05T04:57:58.993Z,17.63
2023-02-05T05:00:26.833Z,16.60
2023-02-05T05:02:54.487Z,20.98
2023-02-05T05:05:21.801Z,14.93
2023-02-05T05:07:49.215Z,19.90
2023-02-05T05:10:16.863Z,23.27
2023-02-05T05:12:46.029Z,14.27
2023-02-05T05:15:19.049Z,17.95
2023-02-05T05:17:46.300Z,17.25
2023-02-05T05:20:16.036Z,9.75
2023-02-05T05:29:27.402Z,14.73
2023-02-05T05:31:54.917Z,12.57
2023-02-05T05:34:30.615Z,10.63
2023-02-05T05:36:57.982Z,9.13
2023-02-05T05:39:43.789Z,12.60
2023-02-05T05:42:31.500Z,11.98
2023-02-05T05:44:58.920Z,19.17
2023-02-05T05:47:34.691Z,13.77
2023-02-05T05:50:02.232Z,15.68
2023-02-05T05:52:32.268Z,15.13
2023-02-05T05:54:59.743Z,17.80
2023-02-05T05:57:27.100Z,15.25
2023-02-05T05:59:55.982Z,17.27
2023-02-05T06:02:23.786Z,19.80
2023-02-05T06:04:51.016Z,21.60
2023-02-05T06:07:18.387Z,16.90
2023-02-05T06:09:45.595Z,14.25
2023-02-05T06:12:12.897Z,12.60
2023-02-05T06:14:40.928Z,15.25
2023-02-05T06:17:08.537Z,14.70
2023-02-05T06:19:36.461Z,17.40
2023-02-05T06:22:08.903Z,10.90
2023-02-05T06:24:38.719Z,12.10
2023-02-05T06:27:06.810Z,14.70
2023-02-05T06:29:36.580Z,10.95
2023-02-05T06:32:03.980Z,13.75
2023-02-05T06:34:31.698Z,12.05
2023-02-05T06:37:01.530Z,13.32
2023-02-05T06:39:51.206Z,9.88
2023-02-05T06:42:18.496Z,13.93
2023-02-05T06:44:45.952Z,13.48
2023-02-05T06:47:14.402Z,11.43
2023-02-05T06:49:41.608Z,11.25
2023-02-05T06:52:08.832Z,14.70
2023-02-05T06:54:40.168Z,15.00
2023-02-05T06:57:15.932Z,11.52
2023-02-05T06:59:43.180Z,12.15
2023-02-05T07:02:14.490Z,12.90
2023-02-05T07:04:41.918Z,11.02
2023-02-05T07:13:49.327Z,11.85
2023-02-05T07:19:42.170Z,13.57
2023-02-05T07:25:11.322Z,19.48
2023-02-05T07:28:08.793Z,12.40
2023-02-05T07:30:37.417Z,14.25
2023-02-05T07:33:15.279Z,9.95
2023-02-05T07:36:01.925Z,13.30
2023-02-05T07:38:29.524Z,12.90
2023-02-05T07:40:57.070Z,15.15
2023-02-05T07:43:25.467Z,15.82
2023-02-05T07:46:02.199Z,18.45
2023-02-05T07:53:52.625Z,11.40
2023-02-05T07:56:22.335Z,14.40
2023-02-05T07:58:49.722Z,15.48
2023-02-05T08:01:17.567Z,9.65
2023-02-05T08:04:42.484Z,9.13
2023-02-05T08:07:11.999Z,13.38
2023-02-05T08:09:42.675Z,9.85
2023-02-05T08:15:49.161Z,13.35
2023-02-05T08:21:09.180Z,9.32
2023-02-05T08:23:38.178Z,8.48
2023-02-05T08:26:06.255Z,10.38
2023-02-05T08:28:33.674Z,8.05
2023-02-05T08:31:01.183Z,9.95
2023-02-05T08:33:28.827Z,9.73
2023-02-05T08:35:59.403Z,9.70
2023-02-05T08:38:26.624Z,6.65
2023-02-05T08:40:54.084Z,11.43
2023-02-05T08:43:23.875Z,11.50
2023-02-05T08:45:51.644Z,8.23
2023-02-05T08:48:20.221Z,10.73
2023-02-05T08:50:47.865Z,10.85
2023-02-05T08:53:16.405Z,10.07
2023-02-05T08:55:46.301Z,10.80
2023-02-05T08:58:13.759Z,14.95
2023-02-05T09:00:41.466Z,14.25
2023-02-05T09:03:09.811Z,9.43
2023-02-05T09:05:44.494Z,9.10
2023-02-05T09:08:12.439Z,6.15
2023-02-05T09:10:40.173Z,8.60
2023-02-05T09:13:07.602Z,11.70
2023-02-05T09:15:35.323Z,5.82
2023-02-05T09:18:17.662Z,8.15
2023-02-05T09:20:47.354Z,7.97
2023-02-05T09:23:16.166Z,8.80
2023-02-05T09:25:43.511Z,8.93
2023-02-05T09:28:13.498Z,8.05
2023-02-05T09:30:43.623Z,7.22
2023-02-05T09:33:11.601Z,7.82
2023-02-05T09:36:04.562Z,13.30
2023-02-05T09:38:32.805Z,8.02
2023-02-05T09:41:12.995Z,13.23
2023-02-05T09:44:04.632Z,14.02
2023-02-05T09:46:55.769Z,7.95
2023-02-05T09:49:43.593Z,9.80
2023-02-05T09:52:55.342Z,7.47
2023-02-05T09:55:29.684Z,15.07
2023-02-05T09:58:28.270Z,10.23
2023-02-05T10:01:04.332Z,7.72
2023-02-05T10:03:44.857Z,6.97
2023-02-05T10:06:37.837Z,7.15
2023-02-05T10:09:24.754Z,6.10
2023-02-05T10:15:27.482Z,10.15
2023-02-05T10:18:13.576Z,9.20
2023-02-05T10:21:10.108Z,7.30
2023-02-05T10:24:18.149Z,7.90
2023-02-05T10:26:50.629Z,7.38
2023-02-05T10:29:27.518Z,7.57
2023-02-05T10:32:24.955Z,5.05
2023-02-05T10:35:05.727Z,5.32
2023-02-05T10:37:43.485Z,6.72
2023-02-05T10:40:33.280Z,8.38
2023-02-05T10:44:03.899Z,4.20
2023-02-05T10:46:34.589Z,5.45
2023-02-05T10:49:26.869Z,10.23
2023-02-05T10:52:06.935Z,5.85
2023-02-05T10:54:35.434Z,9.75
2023-02-05T10:57:02.845Z,14.43
2023-02-05T10:59:32.241Z,10.93
2023-02-05T11:04:49.434Z,7.10
2023-02-05T11:07:33.650Z,8.13
2023-02-05T11:10:21.380Z,5.18
2023-02-05T11:12:51.541Z,7.22
2023-02-05T11:15:24.517Z,10.60
2023-02-05T11:17:54.988Z,5.63
2023-02-05T11:20:35.158Z,4.55
2023-02-05T11:23:21.559Z,9.13
2023-02-05T11:26:01.446Z,5.20
2023-02-05T11:28:38.078Z,7.10
2023-02-05T11:31:27.922Z,7.32
2023-02-05T11:34:39.690Z,5.60
2023-02-05T11:37:10.634Z,5.75
2023-02-05T11:39:39.647Z,6.97
2023-02-05T11:42:20.380Z,6.78
2023-02-05T11:44:50.595Z,4.07
2023-02-05T11:47:40.658Z,4.68
2023-02-05T11:50:24.104Z,6.38
2023-02-05T11:52:54.034Z,6.53
2023-02-05T11:55:32.226Z,9.55
2023-02-05T11:58:03.411Z,5.15
2023-02-05T12:00:38.502Z,3.72
2023-02-05T12:03:17.470Z,5.65
2023-02-05T12:06:04.577Z,3.72
2023-02-05T12:08:43.212Z,6.20
2023-02-05T12:11:22.839Z,6.53
2023-02-05T12:14:02.538Z,7.32
2023-02-05T12:16:48.577Z,4.75
2023-02-05T12:19:50.796Z,3.65
2023-02-05T12:22:44.766Z,5.90
2023-02-05T12:25:24.991Z,5.25
2023-02-05T12:28:03.688Z,5.20
2023-02-05T12:30:43.365Z,5.50
2023-02-05T12:33:29.373Z,4.22
2023-02-05T12:36:23.154Z,5.35
2023-02-05T12:39:24.182Z,9.70
2023-02-05T12:42:12.556Z,5.72
2023-02-05T12:44:55.601Z,3.90
2023-02-05T12:47:37.353Z,5.90
2023-02-05T12:50:32.455Z,6.30
2023-02-05T12:53:39.128Z,4.97
2023-02-05T12:56:35.132Z,3.90
2023-02-05T12:59:29.265Z,7.70
2023-02-05T13:02:01.536Z,5.45
2023-02-05T13:04:41.563Z,12.27
2023-02-05T13:13:46.736Z,4.43
2023-02-05T13:16:18.273Z,3.95
2023-02-05T13:19:02.258Z,5.45
2023-02-05T13:21:50.729Z,5.28
2023-02-05T13:24:52.764Z,8.73
2023-02-05T13:27:46.322Z,6.68
2023-02-05T13:30:21.330Z,8.05
2023-02-05T13:32:51.655Z,8.27
2023-02-05T13:35:20.314Z,6.82
2023-02-05T13:38:15.190Z,6.55
2023-02-05T13:41:20.065Z,6.95
2023-02-05T13:44:12.062Z,6.18
2023-02-05T13:47:20.217Z,8.23
2023-02-05T13:50:15.386Z,5.50
2023-02-05T13:53:01.897Z,5.00
2023-02-05T13:56:16.249Z,5.72
2023-02-05T13:58:53.602Z,6.07
2023-02-05T14:01:23.575Z,4.55
2023-02-05T14:03:57.362Z,4.32
2023-02-05T14:06:35.991Z,6.05
2023-02-05T14:09:19.732Z,4.68
2023-02-05T14:11:58.816Z,7.57
2023-02-05T14:14:41.035Z,3.90
2023-02-05T14:17:37.145Z,10.98
2023-02-05T14:20:06.601Z,7.68
2023-02-05T14:22:42.952Z,7.38
2023-02-05T14:25:36.923Z,8.05
2023-02-05T14:28:30.769Z,4.90
2023-02-05T14:31:03.635Z,10.20
2023-02-05T14:33:36.688Z,11.38
2023-02-05T14:36:22.704Z,6.93
2023-02-05T14:39:03.197Z,8.50
2023-02-05T14:41:44.211Z,5.00
2023-02-05T14:44:17.437Z,6.40
2023-02-05T14:46:59.981Z,9.55
2023-02-05T14:49:33.391Z,8.48
2023-02-05T14:52:07.949Z,5.63
2023-02-05T14:54:59.689Z,5.05
2023-02-05T14:57:48.589Z,2.95
2023-02-05T15:00:32.023Z,3.78
2023-02-05T15:03:02.236Z,4.95
2023-02-05T15:05:44.564Z,6.18
2023-02-05T15:08:16.316Z,4.35
2023-02-05T15:10:55.247Z,4.78
2023-02-05T15:13:24.557Z,5.80
2023-02-05T15:18:50.446Z,6.38
2023-02-05T15:21:17.627Z,4.65
2023-02-05T15:23:47.434Z,4.65
2023-02-05T15:26:38.577Z,3.75
2023-02-05T15:29:28.937Z,4.70
2023-02-05T15:32:08.320Z,11.88
2023-02-05T15:34:47.011Z,11.30
2023-02-05T15:37:24.335Z,7.63
2023-02-05T15:40:25.330Z,6.35
2023-02-05T15:43:20.275Z,4.78
2023-02-05T15:46:23.091Z,9.18
2023-02-05T15:48:50.536Z,12.57
2023-02-05T15:51:27.645Z,8.38
2023-02-05T15:53:57.190Z,6.80
2023-02-05T15:56:26.925Z,10.10
2023-02-05T15:59:11.828Z,8.82
2023-02-05T16:01:46.602Z,10.50
2023-02-05T16:04:28.279Z,9.20
2023-02-05T16:06:55.832Z,11.00
2023-02-05T16:09:26.064Z,18.95
2023-02-05T16:11:54.104Z,12.15
2023-02-05T16:14:34.366Z,11.93
2023-02-05T16:20:33.929Z,7.40
2023-02-05T16:23:08.232Z,6.07
2023-02-05T16:26:03.807Z,8.48
2023-02-05T16:28:38.182Z,20.88
2023-02-05T16:31:06.945Z,11.63
2023-02-05T16:33:38.617Z,16.42
2023-02-05T16:36:07.988Z,20.55
2023-02-05T16:55:17.052Z,14.85
2023-02-05T16:57:47.692Z,17.70
2023-02-05T17:00:19.507Z,13.25
2023-02-05T17:02:47.229Z,11.85
2023-02-05T17:05:26.843Z,14.27
2023-02-05T17:08:05.161Z,13.10
2023-02-05T17:10:48.165Z,8.97
2023-02-05T17:13:39.016Z,11.65
2023-02-05T17:16:36.464Z,8.82
2023-02-05T17:19:25.220Z,12.93
2023-02-05T17:22:15.817Z,9.55
2023-02-05T17:24:48.924Z,7.32
2023-02-05T17:31:35.098Z,13.43
2023-02-05T17:34:18.655Z,9.27
2023-02-05T17:36:47.083Z,10.80
2023-02-05T17:39:14.716Z,8.77
2023-02-05T17:42:00.829Z,10.05
2023-02-05T17:44:34.393Z,9.43
2023-02-05T17:47:02.838Z,11.23
2023-02-05T17:49:30.993Z,10.50
2023-02-05T17:51:58.398Z,11.75
2023-02-05T17:57:23.391Z,12.88
2023-02-05T18:00:01.496Z,14.50
2023-02-05T18:02:50.842Z,14.60
2023-02-05T18:05:19.141Z,11.02
2023-02-05T18:07:55.727Z,10.43
2023-02-05T18:10:28.116Z,10.90
2023-02-05T18:12:56.450Z,13.90
2023-02-05T18:15:24.998Z,13.82
2023-02-05T18:18:04.712Z,15.90
2023-02-05T18:26:12.864Z,26.73
2023-02-05T18:28:40.077Z,23.80
2023-02-05T18:31:08.904Z,40.53
2023-02-05T18:33:37.543Z,23.75
2023-02-05T18:36:17.518Z,24.08
2023-02-05T18:42:26.953Z,26.98
2023-02-05T18:48:39.347Z,29.40
2023-02-05T18:51:25.023Z,25.58
2023-02-05T18:53:53.582Z,22.48
2023-02-05T18:56:26.177Z,58.17
2023-02-05T18:59:04.914Z,45.38
2023-02-05T19:01:57.287Z,29.20
2023-02-05T19:04:33.167Z,25.92
2023-02-05T19:07:00.591Z,35.58
2023-02-05T19:09:28.741Z,30.70
2023-02-05T19:11:56.477Z,26.40
2023-02-05T19:14:24.714Z,34.85
2023-02-05T19:16:52.656Z,31.60
2023-02-05T19:19:23.922Z,28.73
2023-02-05T19:22:00.061Z,32.95
2023-02-05T19:24:27.954Z,52.35
2023-02-05T19:26:57.833Z,33.30
2023-02-05T19:29:30.590Z,38.58
2023-02-05T19:31:58.734Z,50.63
2023-02-05T19:34:28.030Z,43.50
2023-02-05T19:39:22.799Z,50.63
2023-02-05T19:41:52.294Z,55.78
2023-02-05T19:44:19.898Z,51.80
2023-02-05T19:46:48.860Z,49.35
2023-02-05T19:49:20.760Z,56.55
2023-02-05T19:51:49.990Z,47.80
2023-02-05T19:56:46.862Z,51.85
2023-02-05T19:59:16.889Z,47.53
2023-02-05T20:01:44.871Z,42.08
2023-02-05T20:04:17.242Z,46.97
2023-02-05T20:06:46.284Z,57.88
2023-02-05T20:09:14.706Z,64.60
2023-02-05T20:11:44.173Z,66.53
2023-02-05T20:14:12.363Z,62.80
2023-02-05T20:16:40.685Z,67.10
2023-02-05T20:19:10.145Z,68.27
2023-02-05T20:21:42.158Z,56.03
2023-02-05T20:24:12.096Z,46.33
2023-02-05T20:26:40.884Z,49.50
2023-02-05T20:29:27.154Z,54.97
2023-02-05T20:31:58.485Z,60.63
2023-02-05T20:34:31.203Z,46.30
2023-02-05T20:37:02.533Z,49.83
2023-02-05T20:39:30.512Z,51.47
2023-02-05T20:42:12.280Z,61.10
2023-02-05T20:44:43.593Z,53.28
2023-02-05T20:47:13.811Z,62.03
2023-02-05T20:49:42.483Z,71.72
2023-02-05T20:52:13.838Z,64.45
2023-02-05T20:54:43.290Z,60.78
2023-02-05T20:57:11.508Z,56.65
2023-02-05T20:59:38.855Z,49.65
2023-02-05T21:02:06.676Z,48.55
2023-02-05T21:04:34.056Z,51.70
2023-02-05T21:07:05.444Z,46.67
2023-02-05T21:09:32.996Z,48.05
2023-02-05T21:12:00.429Z,47.58
2023-02-05T21:14:28.748Z,55.78
2023-02-05T21:16:56.153Z,56.77
2023-02-05T21:19:25.939Z,47.20
2023-02-05T21:22:02.968Z,57.60
2023-02-05T21:24:30.232Z,52.85
2023-02-05T21:27:01.111Z,47.00
2023-02-05T21:29:28.414Z,47.40
2023-02-05T21:31:57.776Z,54.30
2023-02-05T21:34:27.318Z,53.30
2023-02-05T21:36:55.864Z,52.63
2023-02-05T21:39:26.390Z,52.78
2023-02-05T21:41:54.233Z,50.28
2023-02-05T21:44:22.119Z,49.55
2023-02-05T21:46:49.770Z,49.15
2023-02-05T21:49:17.172Z,53.85
2023-02-05T21:51:53.567Z,55.00
2023-02-05T21:54:26.176Z,53.70
2023-02-05T21:56:53.547Z,55.20
2023-02-05T21:59:20.840Z,49.58
2023-02-05T22:01:48.265Z,55.33
2023-02-05T22:04:16.661Z,52.75
2023-02-05T22:06:44.389Z,58.63
2023-02-05T22:09:14.502Z,53.97
2023-02-05T22:11:42.403Z,52.63
2023-02-05T22:14:10.778Z,57.83
2023-02-05T22:16:39.051Z,60.73
2023-02-05T22:19:07.037Z,54.83
2023-02-05T22:21:41.250Z,59.20
2023-02-05T22:24:11.014Z,50.03
2023-02-05T22:26:40.138Z,50.78
2023-02-05T22:29:10.593Z,49.17
2023-02-05T22:31:37.912Z,51.33
2023-02-05T22:34:05.468Z,51.63
2023-02-05T22:36:34.528Z,52.83
2023-02-05T22:39:03.076Z,49.15
2023-02-05T22:41:32.892Z,41.65
2023-02-05T22:44:01.411Z,52.92
2023-02-05T22:46:30.975Z,53.20
2023-02-05T22:49:00.834Z,50.75
2023-02-05T22:51:31.577Z,49.70
2023-02-05T22:53:58.949Z,49.30
2023-02-05T22:56:26.289Z,48.88
2023-02-05T22:58:54.071Z,46.17
2023-02-05T23:01:25.230Z,45.95
2023-02-05T23:04:06.502Z,41.22
2023-02-05T23:06:39.888Z,38.83
2023-02-05T23:09:13.581Z,37.58
2023-02-05T23:11:41.068Z,36.00
2023-02-05T23:14:09.057Z,37.05
2023-02-05T23:16:39.083Z,40.83
2023-02-05T23:19:09.311Z,36.13
2023-02-05T23:21:37.804Z,36.50
2023-02-05T23:24:05.331Z,27.55
2023-02-05T23:26:37.113Z,28.40
2023-02-05T23:29:04.671Z,31.17
2023-02-05T23:31:32.096Z,25.60
2023-02-05T23:33:59.484Z,30.73
2023-02-05T23:36:26.694Z,18.63
2023-02-05T23:38:53.947Z,19.20
2023-02-05T23:41:36.657Z,22.00
2023-02-05T23:44:05.556Z,23.08
2023-02-05T23:46:34.648Z,24.45
2023-02-05T23:49:01.899Z,19.95
2023-02-05T23:51:29.192Z,24.38
2023-02-05T23:53:56.534Z,19.58
2023-02-05T23:56:23.972Z,16.95
2023-02-05T23:58:51.211Z,26.17
